Time;durP1;ratioP1;P1;durP2;ratioP2;P2;SDS_P1;SDS_P2;PMS_P1;PMS_P2;Temp;Humidity;BMP_temperature;BMP_pressure;BME280_temperature;BME280_humidity;BME280_pressure;Samples;Min_cycle;Max_cycle;Signal;HPM_P1;HPM_P2
2021/07/14 00:00:46;;;;;;;14.73;10.77;;;20.00;90.50;;;;;;2064891;28;20046;-84
2021/07/14 00:01:47;;;;;;;14.48;10.77;;;20.00;90.50;;;;;;2064901;28;20044;-84
2021/07/14 00:02:48;;;;;;;14.27;10.68;;;20.00;90.50;;;;;;2064870;28;20038;-84
2021/07/14 00:03:49;;;;;;;14.50;10.20;;;20.00;90.50;;;;;;2072914;28;20029;-83
2021/07/14 00:04:50;;;;;;;17.40;11.65;;;20.10;90.50;;;;;;2080687;28;20511;-83
2021/07/14 00:05:51;;;;;;;15.45;11.05;;;20.00;90.50;;;;;;2081204;28;20030;-84
2021/07/14 00:06:52;;;;;;;18.30;13.00;;;20.00;90.50;;;;;;2081035;28;20054;-84
2021/07/14 00:07:52;;;;;;;14.13;10.95;;;20.00;90.40;;;;;;2072957;28;20029;-84
2021/07/14 00:08:53;;;;;;;15.15;11.68;;;20.00;90.50;;;;;;2072817;28;20025;-84
2021/07/14 00:09:53;;;;;;;15.18;11.45;;;20.00;90.50;;;;;;2072977;28;20040;-83
2021/07/14 00:10:54;;;;;;;17.30;12.20;;;20.00;90.40;;;;;;2080983;28;20025;-84
2021/07/14 00:11:57;;;;;;;16.25;11.20;;;20.00;90.40;;;;;;2072887;28;20033;-83
2021/07/14 00:13:57;;;;;;;15.18;11.40;;;20.00;90.50;;;;;;2064796;28;20504;-84
2021/07/14 00:14:45;;;;;;;16.17;11.45;;;20.00;90.40;;;;;;2073074;28;20037;-84
2021/07/14 00:22:11;;;;;;;15.00;11.52;;;20.00;90.40;;;;;;2089230;28;20048;-84
2021/07/14 00:23:13;;;;;;;12.80;10.25;;;20.00;90.40;;;;;;2085739;28;20064;-83
2021/07/14 00:24:14;;;;;;;13.45;10.43;;;20.00;90.40;;;;;;2075196;28;20034;-84
2021/07/14 00:25:14;;;;;;;13.27;9.98;;;20.00;90.40;;;;;;2080604;28;20185;-83
2021/07/14 00:26:15;;;;;;;13.55;10.38;;;20.00;90.40;;;;;;2081075;28;20031;-83
2021/07/14 00:27:16;;;;;;;17.33;11.48;;;20.00;90.40;;;;;;2064714;28;20031;-83
2021/07/14 00:28:17;;;;;;;13.40;10.57;;;20.00;90.40;;;;;;2056804;28;20066;-83
2021/07/14 00:29:18;;;;;;;13.60;10.20;;;20.00;90.40;;;;;;2064977;28;20037;-84
2021/07/14 00:30:27;;;;;;;13.63;10.63;;;20.00;90.40;;;;;;2072967;28;20022;-85
2021/07/14 00:31:27;;;;;;;12.90;10.43;;;20.00;90.40;;;;;;2089336;28;20017;-84
2021/07/14 00:32:28;;;;;;;13.10;9.57;;;20.00;90.40;;;;;;2088713;28;20423;-84
2021/07/14 00:33:30;;;;;;;14.48;10.25;;;20.00;90.50;;;;;;2089115;28;20502;-84
2021/07/14 00:34:31;;;;;;;12.38;10.07;;;20.00;90.40;;;;;;2072969;28;20460;-84
2021/07/14 00:35:32;;;;;;;13.65;9.65;;;20.00;90.40;;;;;;2072559;28;20110;-85
2021/07/14 00:36:33;;;;;;;11.52;9.35;;;20.00;90.30;;;;;;2081133;28;20460;-84
2021/07/14 00:37:35;;;;;;;11.95;9.85;;;20.00;90.30;;;;;;2072920;28;20393;-84
2021/07/14 00:38:36;;;;;;;12.88;9.85;;;20.00;90.30;;;;;;2062221;28;20046;-84
2021/07/14 00:39:37;;;;;;;10.70;8.93;;;20.00;90.30;;;;;;2048609;28;20186;-84
2021/07/14 00:40:37;;;;;;;12.05;9.75;;;20.00;90.30;;;;;;2064864;28;20026;-84
2021/07/14 00:41:38;;;;;;;11.95;9.20;;;20.00;90.30;;;;;;2064764;28;20109;-84
2021/07/14 00:42:39;;;;;;;12.68;9.52;;;20.00;90.30;;;;;;2056703;28;20027;-84
2021/07/14 00:43:40;;;;;;;13.60;9.43;;;20.00;90.20;;;;;;2064397;28;20058;-84
2021/07/14 00:44:41;;;;;;;13.43;10.23;;;20.00;90.20;;;;;;2056945;28;20030;-84
2021/07/14 00:45:41;;;;;;;14.77;10.40;;;20.00;90.20;;;;;;2064758;28;20556;-84
2021/07/14 00:46:46;;;;;;;12.82;9.20;;;20.00;90.20;;;;;;2070314;28;20421;-84
2021/07/14 00:47:50;;;;;;;12.80;9.13;;;20.00;90.20;;;;;;2064135;28;20026;-84
2021/07/14 00:48:52;;;;;;;11.18;8.98;;;20.00;90.30;;;;;;2071447;28;20042;-84
2021/07/14 00:49:54;;;;;;;12.10;9.18;;;20.00;90.50;;;;;;2067298;28;20023;-84
2021/07/14 00:50:54;;;;;;;11.80;9.40;;;20.00;90.30;;;;;;2070001;28;20073;-85
2021/07/14 00:51:55;;;;;;;13.43;10.02;;;20.00;90.30;;;;;;2062377;28;20513;-84
2021/07/14 00:52:57;;;;;;;12.98;9.90;;;20.00;90.30;;;;;;2070744;28;20037;-84
2021/07/14 00:53:58;;;;;;;11.80;9.23;;;20.00;90.20;;;;;;2070812;28;20535;-84
2021/07/14 00:54:59;;;;;;;11.95;9.57;;;20.00;90.20;;;;;;2077487;28;20022;-85
2021/07/14 00:55:59;;;;;;;11.50;9.38;;;20.00;90.20;;;;;;2064832;28;20030;-85
2021/07/14 00:57:00;;;;;;;11.98;9.32;;;20.00;90.20;;;;;;2072794;28;20161;-84
2021/07/14 00:58:02;;;;;;;13.77;10.25;;;20.00;90.20;;;;;;2064449;28;20394;-84
2021/07/14 00:59:02;;;;;;;12.38;9.40;;;20.00;90.20;;;;;;2065211;28;20026;-84
2021/07/14 01:00:06;;;;;;;13.15;9.00;;;20.00;90.20;;;;;;2064693;28;20038;-84
2021/07/14 01:01:07;;;;;;;12.85;9.50;;;20.00;90.20;;;;;;2065030;28;20449;-84
2021/07/14 01:02:07;;;;;;;11.93;9.07;;;20.00;90.20;;;;;;2064645;28;20038;-84
2021/07/14 01:03:09;;;;;;;11.73;9.30;;;20.00;90.20;;;;;;2064598;28;20031;-84
2021/07/14 01:04:19;;;;;;;11.63;9.10;;;20.00;90.20;;;;;;2066114;28;20477;-84
2021/07/14 01:05:23;;;;;;;10.88;8.38;;;20.00;90.20;;;;;;2067392;28;20034;-84
2021/07/14 01:06:28;;;;;;;13.63;9.52;;;20.00;90.20;;;;;;2077175;28;20357;-83
2021/07/14 01:07:38;;;;;;;13.95;9.85;;;20.00;90.20;;;;;;2074905;28;20109;-84
2021/07/14 01:08:48;;;;;;;11.45;8.95;;;20.00;90.20;;;;;;2075407;28;20491;-84
2021/07/14 01:10:05;;;;;;;10.90;8.93;;;20.00;90.20;;;;;;2074295;28;20048;-84
2021/07/14 01:11:14;;;;;;;11.13;8.45;;;20.00;90.20;;;;;;2067965;28;20026;-84
2021/07/14 01:12:24;;;;;;;12.20;8.77;;;20.00;90.20;;;;;;2075507;28;20077;-84
2021/07/14 01:13:38;;;;;;;12.82;9.73;;;20.00;90.20;;;;;;2074428;28;20022;-84
2021/07/14 01:14:50;;;;;;;12.63;9.38;;;20.00;90.20;;;;;;2067754;28;20448;-84
2021/07/14 01:16:03;;;;;;;12.43;9.55;;;19.90;90.20;;;;;;2067662;28;20022;-84
2021/07/14 01:17:08;;;;;;;13.70;9.85;;;19.90;90.20;;;;;;2075797;28;20025;-84
2021/07/14 01:18:13;;;;;;;13.30;9.45;;;19.90;90.20;;;;;;2074130;28;20484;-84
2021/07/14 01:19:32;;;;;;;11.95;8.93;;;19.90;90.20;;;;;;2066364;28;20034;-84
2021/07/14 01:20:46;;;;;;;11.43;8.88;;;19.90;90.20;;;;;;2068479;28;20018;-84
2021/07/14 01:21:50;;;;;;;12.95;9.82;;;19.80;90.20;;;;;;2067863;28;20097;-84
2021/07/14 01:23:08;;;;;;;13.82;10.23;;;19.80;90.20;;;;;;2066204;28;20492;-83
2021/07/14 01:24:32;;;;;;;13.50;9.48;;;19.80;90.20;;;;;;2080998;28;20060;-84
2021/07/14 01:26:00;;;;;;;13.48;9.13;;;19.80;90.30;;;;;;2077052;28;20029;-84
2021/07/14 01:27:18;;;;;;;10.25;8.35;;;19.80;90.30;;;;;;2077844;28;20025;-84
2021/07/14 01:28:20;;;;;;;11.02;8.57;;;19.80;90.30;;;;;;2076192;28;20037;-84
2021/07/14 01:29:22;;;;;;;10.68;8.30;;;19.80;90.30;;;;;;2074224;28;20121;-84
2021/07/14 01:30:23;;;;;;;11.45;8.77;;;19.80;90.30;;;;;;2066013;28;20078;-84
2021/07/14 01:31:25;;;;;;;10.43;8.50;;;19.80;90.30;;;;;;2074078;28;20053;-84
2021/07/14 01:32:30;;;;;;;10.85;8.60;;;19.80;90.30;;;;;;2091152;28;20025;-84
2021/07/14 01:33:34;;;;;;;10.57;8.27;;;19.80;90.40;;;;;;2081920;28;20084;-84
2021/07/14 01:34:37;;;;;;;11.35;8.98;;;19.80;90.40;;;;;;2074577;28;20026;-84
2021/07/14 01:35:45;;;;;;;12.60;9.52;;;19.80;90.40;;;;;;2074427;28;20057;-84
2021/07/14 01:36:48;;;;;;;11.05;8.65;;;19.80;90.40;;;;;;2083242;28;20021;-84
2021/07/14 01:37:50;;;;;;;12.27;9.15;;;19.80;90.40;;;;;;2082165;28;20022;-84
2021/07/14 01:38:53;;;;;;;11.60;8.55;;;19.80;90.40;;;;;;2065995;28;20030;-84
2021/07/14 01:39:58;;;;;;;11.20;8.88;;;19.80;90.50;;;;;;2074576;28;20037;-84
2021/07/14 01:41:00;;;;;;;12.93;9.25;;;19.80;90.50;;;;;;2088792;28;20021;-84
2021/07/14 01:42:03;;;;;;;11.90;9.73;;;19.70;90.50;;;;;;2081867;28;20029;-84
2021/07/14 01:43:06;;;;;;;12.27;9.18;;;19.80;90.60;;;;;;2082229;28;20109;-84
2021/07/14 01:44:08;;;;;;;12.95;8.90;;;19.80;90.60;;;;;;2081994;28;20037;-84
2021/07/14 01:45:09;;;;;;;13.02;9.90;;;19.70;90.60;;;;;;2074009;28;20022;-84
2021/07/14 01:46:12;;;;;;;11.73;9.27;;;19.70;90.60;;;;;;2081925;28;20021;-84
2021/07/14 01:47:13;;;;;;;12.02;8.82;;;19.70;90.60;;;;;;2074268;28;20536;-84
2021/07/14 01:48:15;;;;;;;11.13;9.30;;;19.70;90.70;;;;;;2082119;28;20058;-84
2021/07/14 01:49:18;;;;;;;13.18;9.55;;;19.70;90.70;;;;;;2074163;28;20045;-84
2021/07/14 01:50:20;;;;;;;11.52;8.95;;;19.80;90.70;;;;;;2073898;28;20101;-84
2021/07/14 01:51:21;;;;;;;11.10;9.05;;;19.70;90.90;;;;;;2065790;28;20061;-84
2021/07/14 01:52:26;;;;;;;11.60;9.07;;;19.70;90.70;;;;;;2074120;28;20034;-84
2021/07/14 01:53:27;;;;;;;12.68;9.60;;;19.70;90.80;;;;;;2082154;28;20120;-85
2021/07/14 01:54:29;;;;;;;11.88;9.23;;;19.70;90.70;;;;;;2066055;28;20069;-84
2021/07/14 01:55:33;;;;;;;12.60;9.23;;;19.70;90.80;;;;;;2073826;28;20022;-84
2021/07/14 01:56:38;;;;;;;12.52;9.45;;;19.70;90.80;;;;;;2074281;28;20073;-83
2021/07/14 01:57:40;;;;;;;13.05;9.82;;;19.70;90.80;;;;;;2074307;28;20045;-84
2021/07/14 01:58:43;;;;;;;13.65;9.63;;;19.70;90.80;;;;;;2073813;28;20125;-83
2021/07/14 01:59:45;;;;;;;12.32;9.15;;;19.70;90.80;;;;;;2074278;28;20496;-83
2021/07/14 02:00:51;;;;;;;11.07;8.73;;;19.70;90.90;;;;;;2073738;28;20033;-84
2021/07/14 02:01:53;;;;;;;11.00;8.85;;;19.70;90.90;;;;;;2074679;28;20033;-84
2021/07/14 02:03:26;;;;;;;13.75;9.32;;;19.70;90.90;;;;;;2073730;28;20020;-84
2021/07/14 02:04:30;;;;;;;12.90;9.43;;;19.70;90.90;;;;;;2069554;28;20030;-84
2021/07/14 02:05:32;;;;;;;11.52;8.70;;;19.70;90.90;;;;;;2061864;28;20030;-84
2021/07/14 02:06:34;;;;;;;11.30;8.82;;;19.70;90.90;;;;;;2066400;28;20037;-84
2021/07/14 02:07:36;;;;;;;12.15;8.82;;;19.60;90.90;;;;;;2065498;28;20125;-84
2021/07/14 02:08:38;;;;;;;12.32;9.45;;;19.60;90.90;;;;;;2057647;28;20043;-84
2021/07/14 02:09:42;;;;;;;12.43;9.30;;;19.60;91.00;;;;;;2058220;28;20023;-84
2021/07/14 02:10:44;;;;;;;13.75;9.75;;;19.60;91.00;;;;;;2074139;28;20025;-84
2021/07/14 02:11:47;;;;;;;11.02;8.82;;;19.60;91.10;;;;;;2073740;28;20485;-84
2021/07/14 02:12:50;;;;;;;12.43;9.02;;;19.60;91.10;;;;;;2065832;28;20456;-84
2021/07/14 02:13:52;;;;;;;10.23;8.25;;;19.60;91.10;;;;;;2065654;28;20038;-84
2021/07/14 02:14:59;;;;;;;11.00;8.77;;;19.60;91.10;;;;;;2078077;28;20025;-84
2021/07/14 02:16:04;;;;;;;11.50;9.05;;;19.60;91.20;;;;;;2074645;28;20056;-84
2021/07/14 02:17:12;;;;;;;12.50;9.32;;;19.60;91.20;;;;;;2073723;28;20030;-84
2021/07/14 02:18:14;;;;;;;11.60;8.80;;;19.60;91.20;;;;;;2067897;28;20551;-84
2021/07/14 02:19:17;;;;;;;11.50;8.75;;;19.60;91.20;;;;;;2065902;28;20393;-84
2021/07/14 02:20:19;;;;;;;10.20;8.30;;;19.60;91.20;;;;;;2066393;28;20030;-84
2021/07/14 02:21:20;;;;;;;11.18;8.40;;;19.60;91.20;;;;;;2073918;28;20022;-84
2021/07/14 02:22:20;;;;;;;12.05;9.02;;;19.60;91.20;;;;;;2065623;28;20532;-84
2021/07/14 02:23:21;;;;;;;14.18;9.68;;;19.60;91.20;;;;;;2065424;28;20039;-84
2021/07/14 02:24:22;;;;;;;13.10;9.55;;;19.60;91.20;;;;;;2073760;28;20049;-84
2021/07/14 02:25:23;;;;;;;13.48;9.75;;;19.60;91.20;;;;;;2081741;28;20093;-84
2021/07/14 02:26:25;;;;;;;11.05;8.90;;;19.60;91.20;;;;;;2073586;28;20026;-84
2021/07/14 02:27:26;;;;;;;11.95;9.30;;;19.60;91.20;;;;;;2049815;28;20105;-84
2021/07/14 02:28:27;;;;;;;11.80;8.93;;;19.60;91.20;;;;;;2057985;28;20118;-84
2021/07/14 02:29:27;;;;;;;12.55;8.95;;;19.60;91.20;;;;;;2057417;28;20214;-84
2021/07/14 02:30:28;;;;;;;11.00;8.77;;;19.60;91.30;;;;;;2049713;28;20035;-84
2021/07/14 02:31:29;;;;;;;11.13;8.32;;;19.60;91.30;;;;;;2057053;28;20511;-84
2021/07/14 02:32:30;;;;;;;11.88;8.48;;;19.70;91.30;;;;;;2065678;28;20038;-84
2021/07/14 02:33:31;;;;;;;12.18;9.00;;;19.60;91.20;;;;;;2065643;28;20121;-85
2021/07/14 02:34:32;;;;;;;11.60;9.00;;;19.60;91.30;;;;;;2057433;28;20031;-84
2021/07/14 02:35:38;;;;;;;13.40;9.02;;;19.70;91.20;;;;;;2065472;28;20034;-84
2021/07/14 02:36:41;;;;;;;12.45;9.13;;;19.60;91.20;;;;;;2074380;28;20029;-84
2021/07/14 02:38:03;;;;;;;13.18;9.43;;;19.60;91.20;;;;;;2081928;28;20100;-84
2021/07/14 02:39:06;;;;;;;11.52;8.80;;;19.70;91.20;;;;;;2081749;28;20044;-84
2021/07/14 02:40:08;;;;;;;13.32;8.35;;;19.60;91.20;;;;;;2065590;28;20436;-84
2021/07/14 02:41:22;;;;;;;12.85;8.80;;;19.60;91.20;;;;;;2065784;28;20038;-84
2021/07/14 02:42:31;;;;;;;13.48;9.30;;;19.60;91.20;;;;;;2069137;28;20117;-84
2021/07/14 02:43:35;;;;;;;14.07;9.35;;;19.70;91.20;;;;;;2082415;28;20527;-84
2021/07/14 02:44:40;;;;;;;14.63;9.88;;;19.60;91.20;;;;;;2081476;28;20036;-84
2021/07/14 02:45:44;;;;;;;14.57;10.07;;;19.60;91.20;;;;;;2074132;28;20428;-84
2021/07/14 02:46:45;;;;;;;15.88;10.00;;;19.70;91.30;;;;;;2074054;28;20018;-85
2021/07/14 02:47:47;;;;;;;13.30;9.50;;;19.70;91.30;;;;;;2065441;28;20509;-85
2021/07/14 02:48:52;;;;;;;15.32;9.73;;;19.70;91.60;;;;;;2060866;28;20034;-84
2021/07/14 02:49:53;;;;;;;13.60;9.45;;;19.60;91.30;;;;;;2082139;28;20041;-84
2021/07/14 02:50:56;;;;;;;13.15;9.77;;;19.60;91.30;;;;;;2081867;28;20025;-85
2021/07/14 02:51:57;;;;;;;13.10;9.55;;;19.60;91.60;;;;;;2074173;28;20481;-84
2021/07/14 02:53:05;;;;;;;13.80;9.45;;;19.70;91.30;;;;;;2073459;28;20473;-84
2021/07/14 02:54:17;;;;;;;14.55;10.05;;;19.60;91.60;;;;;;2083800;28;20412;-85
2021/07/14 02:55:24;;;;;;;14.48;9.82;;;19.60;91.30;;;;;;2098585;28;20123;-84
2021/07/14 02:56:27;;;;;;;13.75;9.70;;;19.60;91.30;;;;;;2088787;28;20623;-85
2021/07/14 02:57:30;;;;;;;15.55;10.15;;;19.70;91.30;;;;;;2073996;28;20117;-84
2021/07/14 02:58:32;;;;;;;12.68;9.18;;;19.60;91.30;;;;;;2081573;28;20037;-85
2021/07/14 02:59:36;;;;;;;13.00;10.02;;;19.60;91.30;;;;;;2081799;28;20415;-85
2021/07/14 03:00:38;;;;;;;15.00;10.23;;;19.60;91.40;;;;;;2081607;28;20152;-85
2021/07/14 03:01:43;;;;;;;14.18;9.85;;;19.60;91.40;;;;;;2065488;28;20019;-85
2021/07/14 03:02:46;;;;;;;14.52;10.23;;;19.60;91.40;;;;;;2065653;28;20036;-84
2021/07/14 03:03:51;;;;;;;13.63;10.02;;;19.60;91.40;;;;;;2066046;28;20022;-85
2021/07/14 03:04:52;;;;;;;12.60;9.07;;;19.50;91.40;;;;;;2073630;28;20508;-85
2021/07/14 03:05:59;;;;;;;14.52;9.63;;;19.50;91.40;;;;;;2076775;28;20055;-84
2021/07/14 03:07:02;;;;;;;14.35;10.10;;;19.60;91.50;;;;;;2066515;28;20058;-85
2021/07/14 03:08:07;;;;;;;15.00;9.68;;;19.50;91.50;;;;;;2069356;28;20074;-85
2021/07/14 03:09:11;;;;;;;16.25;10.60;;;19.50;91.50;;;;;;2065299;28;20544;-84
2021/07/14 03:10:16;;;;;;;12.75;9.40;;;19.50;91.50;;;;;;2057473;28;20074;-84
2021/07/14 03:11:18;;;;;;;13.73;9.85;;;19.50;91.50;;;;;;2066691;28;20053;-84
2021/07/14 03:12:20;;;;;;;15.40;10.25;;;19.50;91.50;;;;;;2065117;28;20377;-84
2021/07/14 03:13:27;;;;;;;13.65;9.50;;;19.50;91.50;;;;;;2065538;28;20030;-84
2021/07/14 03:14:28;;;;;;;15.80;10.75;;;19.50;91.50;;;;;;2073326;28;20133;-84
2021/07/14 03:15:36;;;;;;;15.57;10.38;;;19.50;91.50;;;;;;2065187;28;20158;-84
2021/07/14 03:16:37;;;;;;;16.38;10.30;;;19.50;91.50;;;;;;2066802;28;20479;-84
2021/07/14 03:17:40;;;;;;;15.20;10.45;;;19.50;91.50;;;;;;2082020;28;20075;-84
2021/07/14 03:18:46;;;;;;;15.23;10.38;;;19.50;91.50;;;;;;2081634;28;20029;-84
2021/07/14 03:19:48;;;;;;;15.40;10.25;;;19.50;91.50;;;;;;2073288;28;20025;-84
2021/07/14 03:20:52;;;;;;;14.95;9.90;;;19.50;91.60;;;;;;2065207;28;20527;-84
2021/07/14 03:21:54;;;;;;;16.23;10.63;;;19.50;91.60;;;;;;2065418;28;20026;-84
2021/07/14 03:22:56;;;;;;;13.02;9.60;;;19.50;91.60;;;;;;2069881;28;20026;-84
2021/07/14 03:24:00;;;;;;;15.38;10.40;;;19.50;91.60;;;;;;2065076;28;20113;-84
2021/07/14 03:25:01;;;;;;;15.20;10.63;;;19.50;91.60;;;;;;2065918;28;20030;-84
2021/07/14 03:26:02;;;;;;;15.55;10.82;;;19.50;91.60;;;;;;2064963;28;20077;-84
2021/07/14 03:27:08;;;;;;;14.32;10.38;;;19.50;91.60;;;;;;2067872;28;20049;-84
2021/07/14 03:28:09;;;;;;;15.40;10.45;;;19.50;91.60;;;;;;2081812;28;20499;-84
2021/07/14 03:29:13;;;;;;;13.65;10.20;;;19.50;91.60;;;;;;2081403;28;20526;-84
2021/07/14 03:30:14;;;;;;;16.20;10.82;;;19.50;91.60;;;;;;2073916;28;20575;-84
2021/07/14 03:31:15;;;;;;;16.58;11.07;;;19.50;91.60;;;;;;2081318;28;20025;-84
2021/07/14 03:32:17;;;;;;;17.83;12.65;;;19.50;91.60;;;;;;2073115;28;20121;-84
2021/07/14 03:33:18;;;;;;;17.27;11.50;;;19.40;91.60;;;;;;2065598;28;20053;-83
2021/07/14 03:34:19;;;;;;;20.90;14.35;;;19.50;91.60;;;;;;2064913;28;20073;-84
2021/07/14 03:35:20;;;;;;;20.63;13.52;;;19.40;91.60;;;;;;2081292;28;20032;-85
2021/07/14 03:36:21;;;;;;;22.50;15.15;;;19.40;91.60;;;;;;2065125;28;20027;-84
2021/07/14 03:37:23;;;;;;;19.30;13.48;;;19.40;91.90;;;;;;2057403;28;20031;-84
2021/07/14 03:38:28;;;;;;;17.90;12.80;;;19.40;91.70;;;;;;2073261;28;20084;-85
2021/07/14 03:39:29;;;;;;;17.85;12.48;;;19.40;91.70;;;;;;2074156;28;20485;-84
2021/07/14 03:40:31;;;;;;;17.48;12.40;;;19.30;91.70;;;;;;2073237;28;20458;-84
2021/07/14 03:41:32;;;;;;;17.13;11.88;;;19.30;91.80;;;;;;2073228;28;20017;-84
2021/07/14 03:42:34;;;;;;;18.25;11.73;;;19.30;91.80;;;;;;2064892;28;20535;-84
2021/07/14 03:43:35;;;;;;;16.80;12.07;;;19.30;91.80;;;;;;2064685;28;20125;-84
2021/07/14 03:44:38;;;;;;;19.25;13.30;;;19.30;91.80;;;;;;2057023;28;20035;-84
2021/07/14 03:45:41;;;;;;;19.73;14.55;;;19.30;91.80;;;;;;2073239;28;20542;-84
2021/07/14 03:46:43;;;;;;;19.02;13.27;;;19.30;91.80;;;;;;2065830;28;20026;-84
2021/07/14 03:47:44;;;;;;;19.55;13.63;;;19.30;91.80;;;;;;2065141;28;20078;-84
2021/07/14 03:48:46;;;;;;;17.33;12.23;;;19.30;91.80;;;;;;2065168;28;20491;-83
2021/07/14 03:49:48;;;;;;;16.60;12.50;;;19.30;91.80;;;;;;2057091;28;20152;-84
2021/07/14 03:50:50;;;;;;;18.13;12.55;;;19.30;91.80;;;;;;2065268;28;20027;-84
2021/07/14 03:51:51;;;;;;;16.85;13.15;;;19.30;91.80;;;;;;2072876;28;20056;-84
2021/07/14 03:52:53;;;;;;;16.02;11.73;;;19.30;91.80;;;;;;2056833;28;20482;-83
2021/07/14 03:53:54;;;;;;;15.93;11.50;;;19.30;91.80;;;;;;2056837;28;20141;-85
2021/07/14 03:54:55;;;;;;;18.45;13.35;;;19.30;91.80;;;;;;2065029;28;20485;-84
2021/07/14 03:55:57;;;;;;;17.35;12.27;;;19.30;91.80;;;;;;2064632;28;20030;-84
2021/07/14 03:56:59;;;;;;;19.50;13.02;;;19.30;91.80;;;;;;2072433;28;20518;-84
2021/07/14 03:57:59;;;;;;;17.95;12.13;;;19.30;91.80;;;;;;2072922;28;20018;-84
2021/07/14 03:59:00;;;;;;;15.70;11.68;;;19.30;91.80;;;;;;2064761;28;20034;-84
2021/07/14 04:00:01;;;;;;;16.60;11.32;;;19.30;91.80;;;;;;2080948;28;20018;-84
2021/07/14 04:01:02;;;;;;;17.00;11.70;;;19.30;91.80;;;;;;2081104;28;20072;-84
2021/07/14 04:02:06;;;;;;;16.42;11.32;;;19.30;91.80;;;;;;2072958;28;20049;-84
2021/07/14 04:03:09;;;;;;;15.80;11.35;;;19.30;91.80;;;;;;2073731;28;20552;-84
2021/07/14 04:04:11;;;;;;;15.52;10.98;;;19.30;91.80;;;;;;2072951;28;20125;-84
2021/07/14 04:05:15;;;;;;;16.65;11.43;;;19.30;91.80;;;;;;2071468;28;20053;-84
2021/07/14 04:06:17;;;;;;;15.20;11.13;;;19.30;91.80;;;;;;2077694;28;20026;-84
2021/07/14 04:07:26;;;;;;;17.45;11.48;;;19.30;91.70;;;;;;2070679;28;20585;-85
2021/07/14 04:08:43;;;;;;;17.08;11.32;;;19.30;91.70;;;;;;2067146;28;20034;-84
2021/07/14 04:09:45;;;;;;;15.30;10.77;;;19.30;91.70;;;;;;2075259;28;20061;-84
2021/07/14 04:10:46;;;;;;;14.88;10.98;;;19.30;91.70;;;;;;2073130;28;20544;-84
2021/07/14 04:11:51;;;;;;;17.42;11.38;;;19.30;91.70;;;;;;2064909;28;20038;-84
2021/07/14 04:12:52;;;;;;;15.88;10.68;;;19.30;91.70;;;;;;2073652;28;20115;-84
2021/07/14 04:13:53;;;;;;;12.85;9.77;;;19.30;91.70;;;;;;2064606;28;20034;-84
2021/07/14 04:14:53;;;;;;;12.93;9.75;;;19.30;91.70;;;;;;2064879;28;20053;-84
2021/07/14 04:15:54;;;;;;;13.48;9.52;;;19.30;91.70;;;;;;2080875;28;20017;-83
2021/07/14 04:16:55;;;;;;;12.82;9.75;;;19.30;91.70;;;;;;2064820;28;20030;-84
2021/07/14 04:17:56;;;;;;;12.38;9.43;;;19.30;91.70;;;;;;2080879;28;20034;-85
2021/07/14 04:18:57;;;;;;;15.13;10.52;;;19.30;91.70;;;;;;2072940;28;20476;-84
2021/07/14 04:19:57;;;;;;;15.25;9.80;;;19.40;91.70;;;;;;2064796;28;20157;-84
2021/07/14 04:20:58;;;;;;;14.60;9.73;;;19.40;91.70;;;;;;2072976;28;20076;-84
2021/07/14 04:22:02;;;;;;;14.80;10.35;;;19.40;91.70;;;;;;2072794;28;20026;-84
2021/07/14 04:23:02;;;;;;;12.38;9.43;;;19.40;91.70;;;;;;2081848;28;20562;-84
2021/07/14 04:24:05;;;;;;;15.35;10.43;;;19.40;91.70;;;;;;2072839;28;20041;-84
2021/07/14 04:25:06;;;;;;;13.25;10.05;;;19.40;91.70;;;;;;2073307;28;20026;-83
2021/07/14 04:26:06;;;;;;;13.65;10.00;;;19.40;91.70;;;;;;2072773;28;20022;-84
2021/07/14 04:27:08;;;;;;;17.00;10.82;;;19.40;91.70;;;;;;2062588;28;20070;-84
2021/07/14 04:28:09;;;;;;;14.90;10.75;;;19.40;91.70;;;;;;2064884;28;20485;-84
2021/07/14 04:29:10;;;;;;;13.00;9.82;;;19.30;91.60;;;;;;2064984;28;20038;-84
2021/07/14 04:30:11;;;;;;;14.43;10.05;;;19.30;91.60;;;;;;2057151;28;20027;-84
2021/07/14 04:31:12;;;;;;;13.18;9.60;;;19.30;91.60;;;;;;2064669;28;20066;-84
2021/07/14 04:32:13;;;;;;;14.25;9.40;;;19.30;91.60;;;;;;2064987;28;20073;-84
2021/07/14 04:33:13;;;;;;;12.15;9.52;;;19.30;91.60;;;;;;2056884;28;20122;-84
2021/07/14 04:34:14;;;;;;;11.90;9.00;;;19.30;91.60;;;;;;2056933;28;20025;-84
2021/07/14 04:35:15;;;;;;;11.80;8.77;;;19.30;91.60;;;;;;2056220;28;20509;-84
2021/07/14 04:36:15;;;;;;;12.75;9.00;;;19.30;91.60;;;;;;2056869;28;20166;-84
2021/07/14 04:37:16;;;;;;;12.63;8.80;;;19.30;91.60;;;;;;2064824;28;20066;-84
2021/07/14 04:38:17;;;;;;;13.10;9.18;;;19.40;91.60;;;;;;2064756;28;20031;-84
2021/07/14 04:39:18;;;;;;;11.93;8.63;;;19.30;91.60;;;;;;2057574;28;20045;-83
2021/07/14 04:40:19;;;;;;;11.57;8.38;;;19.30;91.60;;;;;;2058611;28;20492;-84
2021/07/14 04:41:20;;;;;;;12.10;8.45;;;19.30;91.60;;;;;;2074548;28;20057;-84
2021/07/14 04:42:20;;;;;;;12.63;8.73;;;19.30;91.60;;;;;;2066459;28;20026;-85
2021/07/14 04:43:21;;;;;;;12.85;8.57;;;19.30;91.60;;;;;;2074536;28;20085;-84
2021/07/14 04:44:48;;;;;;;13.75;9.43;;;19.30;91.60;;;;;;2066290;28;20110;-85
2021/07/14 04:45:48;;;;;;;11.65;8.82;;;19.40;91.60;;;;;;2061528;28;20058;-84
2021/07/14 04:46:49;;;;;;;14.18;8.73;;;19.30;91.50;;;;;;2061701;28;20090;-84
2021/07/14 04:47:50;;;;;;;11.68;8.48;;;19.30;91.50;;;;;;2062034;28;20026;-84
2021/07/14 04:48:50;;;;;;;14.13;9.57;;;19.30;91.50;;;;;;2058263;28;20054;-84
2021/07/14 04:49:51;;;;;;;13.80;9.00;;;19.30;91.60;;;;;;2066342;28;20022;-84
2021/07/14 04:50:52;;;;;;;12.32;9.15;;;19.30;91.60;;;;;;2082685;28;20021;-84
2021/07/14 04:51:53;;;;;;;12.65;8.35;;;19.30;91.60;;;;;;2082567;28;20064;-84
2021/07/14 04:52:53;;;;;;;13.95;9.35;;;19.30;91.60;;;;;;2074344;28;20480;-84
2021/07/14 04:53:54;;;;;;;11.80;8.93;;;19.30;91.50;;;;;;2066323;28;20037;-84
2021/07/14 04:54:55;;;;;;;15.18;10.13;;;19.30;91.50;;;;;;2074400;28;20500;-84
2021/07/14 04:55:56;;;;;;;14.75;9.45;;;19.30;91.50;;;;;;2066332;28;20049;-84
2021/07/14 04:56:56;;;;;;;14.35;9.60;;;19.30;91.50;;;;;;2074319;28;20054;-84
2021/07/14 04:57:57;;;;;;;12.57;9.15;;;19.30;91.50;;;;;;2066141;28;20322;-84
2021/07/14 04:58:58;;;;;;;12.43;8.98;;;19.30;91.50;;;;;;2065985;28;20567;-84
2021/07/14 04:59:58;;;;;;;11.93;8.70;;;19.30;91.50;;;;;;2066104;28;20053;-83
2021/07/14 05:00:59;;;;;;;11.82;8.38;;;19.30;91.50;;;;;;2058276;28;20023;-84
2021/07/14 05:01:59;;;;;;;11.93;8.65;;;19.30;91.50;;;;;;2050339;28;20103;-84
2021/07/14 05:03:00;;;;;;;13.48;9.00;;;19.30;91.50;;;;;;2042232;28;20035;-84
2021/07/14 05:04:01;;;;;;;14.27;9.05;;;19.30;91.50;;;;;;2050252;28;20066;-84
2021/07/14 05:05:02;;;;;;;11.20;7.95;;;19.30;91.50;;;;;;2063400;28;20029;-84
2021/07/14 05:06:03;;;;;;;11.25;8.35;;;19.30;91.50;;;;;;2074476;28;20026;-84
2021/07/14 05:07:04;;;;;;;11.48;7.75;;;19.30;91.50;;;;;;2066253;28;20042;-84
2021/07/14 05:08:05;;;;;;;11.30;7.82;;;19.30;91.50;;;;;;2074519;28;20026;-84
2021/07/14 05:09:06;;;;;;;11.70;8.52;;;19.30;91.50;;;;;;2066292;28;20069;-85
2021/07/14 05:10:09;;;;;;;13.30;9.32;;;19.30;91.40;;;;;;2074118;28;20060;-84
2021/07/14 05:11:10;;;;;;;13.25;8.93;;;19.30;91.40;;;;;;2066611;28;20022;-85
2021/07/14 05:12:11;;;;;;;10.10;7.85;;;19.30;91.40;;;;;;2082380;28;20025;-84
2021/07/14 05:13:11;;;;;;;11.05;7.80;;;19.30;91.40;;;;;;2066137;28;20022;-84
2021/07/14 05:14:12;;;;;;;10.48;7.55;;;19.30;91.40;;;;;;2066263;28;20038;-85
2021/07/14 05:15:13;;;;;;;10.43;7.97;;;19.30;91.40;;;;;;2082545;28;20033;-84
2021/07/14 05:16:14;;;;;;;12.45;7.80;;;19.30;91.40;;;;;;2066319;28;20057;-84
2021/07/14 05:17:14;;;;;;;11.52;7.85;;;19.30;91.40;;;;;;2050176;28;20027;-85
2021/07/14 05:18:15;;;;;;;10.88;8.05;;;19.30;91.40;;;;;;2057903;28;20122;-84
2021/07/14 05:19:17;;;;;;;11.05;7.45;;;19.30;91.40;;;;;;2074243;28;20107;-85
2021/07/14 05:20:18;;;;;;;10.35;7.55;;;19.30;91.40;;;;;;2066369;28;20041;-85
2021/07/14 05:21:18;;;;;;;10.18;7.97;;;19.30;91.40;;;;;;2065932;28;20523;-85
2021/07/14 05:22:21;;;;;;;10.10;7.55;;;19.30;91.40;;;;;;2066066;28;20100;-85
2021/07/14 05:23:22;;;;;;;11.48;8.05;;;19.30;91.40;;;;;;2058170;28;20054;-84
2021/07/14 05:24:23;;;;;;;11.18;7.72;;;19.30;91.30;;;;;;2058427;28;20110;-84
2021/07/14 05:25:23;;;;;;;10.80;8.07;;;19.40;91.30;;;;;;2058228;28;20030;-84
2021/07/14 05:26:24;;;;;;;9.23;6.90;;;19.40;91.30;;;;;;2058009;28;20030;-84
2021/07/14 05:27:25;;;;;;;10.25;7.30;;;19.40;91.30;;;;;;2070471;28;20026;-85
2021/07/14 05:28:26;;;;;;;11.82;8.20;;;19.40;91.30;;;;;;2066208;28;20042;-85
2021/07/14 05:29:27;;;;;;;10.90;8.13;;;19.40;91.30;;;;;;2066182;28;20090;-84